createdAt,value
2023-04-01T00:02:51.453Z,100.00
2023-04-01T00:07:54.165Z,100.00
2023-04-01T00:12:58.034Z,100.00
2023-04-01T00:18:01.681Z,100.00
2023-04-01T00:23:05.489Z,100.00
2023-04-01T00:28:09.353Z,100.00
2023-04-01T00:33:12.338Z,100.00
2023-04-01T00:38:14.992Z,100.00
2023-04-01T00:43:21.458Z,100.00
2023-04-01T00:48:27.188Z,100.00
2023-04-01T00:53:31.978Z,100.00
2023-04-01T00:58:42.828Z,100.00
2023-04-01T01:03:45.418Z,100.00
2023-04-01T01:09:08.517Z,100.00
2023-04-01T01:14:27.510Z,100.00
2023-04-01T01:19:55.550Z,100.00
2023-04-01T01:25:15.145Z,100.00
2023-04-01T01:30:33.904Z,100.00
2023-04-01T01:35:40.386Z,100.00
2023-04-01T01:40:46.213Z,100.00
2023-04-01T01:45:53.579Z,100.00
2023-04-01T01:50:57.698Z,100.00
2023-04-01T01:56:00.184Z,100.00
2023-04-01T02:01:06.693Z,100.00
2023-04-01T02:06:16.054Z,100.00
2023-04-01T02:11:21.054Z,100.00
2023-04-01T02:16:28.234Z,100.00
2023-04-01T02:21:34.142Z,100.00
2023-04-01T02:26:37.249Z,100.00
2023-04-01T02:31:40.035Z,100.00
2023-04-01T02:36:44.449Z,100.00
2023-04-01T02:41:47.704Z,100.00
2023-04-01T02:46:50.224Z,100.00
2023-04-01T02:51:54.097Z,100.00
2023-04-01T02:56:56.663Z,100.00
2023-04-01T03:01:59.208Z,100.00
2023-04-01T03:07:03.403Z,100.00
2023-04-01T03:12:06.519Z,100.00
2023-04-01T03:17:09.003Z,100.00
2023-04-01T03:22:13.675Z,100.00
2023-04-01T03:27:16.187Z,100.00
2023-04-01T03:32:18.706Z,100.00
2023-04-01T03:37:22.620Z,100.00
2023-04-01T03:42:25.167Z,100.00
2023-04-01T03:47:27.707Z,100.00
2023-04-01T03:52:31.694Z,100.00
2023-04-01T03:57:34.322Z,100.00
2023-04-01T04:02:37.097Z,100.00
2023-04-01T04:07:40.989Z,100.00
2023-04-01T04:12:43.514Z,100.00
2023-04-01T04:17:46.239Z,100.00
2023-04-01T04:22:50.224Z,100.00
2023-04-01T04:27:52.726Z,100.00
2023-04-01T04:32:55.349Z,100.00
2023-04-01T04:37:59.157Z,100.00
2023-04-01T04:43:05.827Z,100.00
2023-04-01T04:48:10.007Z,100.00
2023-04-01T04:53:14.428Z,100.00
2023-04-01T04:58:17.753Z,100.00
2023-04-01T05:03:20.402Z,100.00
2023-04-01T05:08:24.321Z,100.00
2023-04-01T05:13:26.918Z,100.00
2023-04-01T05:18:29.472Z,100.00
2023-04-01T05:23:34.180Z,100.00
2023-04-01T05:28:36.799Z,100.00
2023-04-01T05:33:39.317Z,100.00
2023-04-01T05:38:44.143Z,100.00
2023-04-01T05:43:46.650Z,100.00
2023-04-01T05:48:49.159Z,100.00
2023-04-01T05:53:53.011Z,100.00
2023-04-01T05:58:56.356Z,100.00
2023-04-01T06:03:59.157Z,100.00
2023-04-01T06:09:14.242Z,100.00
2023-04-01T06:14:32.898Z,100.00
2023-04-01T06:19:45.114Z,100.00
2023-04-01T06:25:06.813Z,100.00
2023-04-01T06:30:27.149Z,100.00
2023-04-01T06:35:40.394Z,100.00
2023-04-01T06:41:14.593Z,100.00
2023-04-01T06:46:26.181Z,100.00
2023-04-01T06:51:38.346Z,100.00
2023-04-01T06:56:47.337Z,100.00
2023-04-01T07:01:54.314Z,100.00
2023-04-01T07:07:00.745Z,100.00
2023-04-01T07:12:13.775Z,100.00
2023-04-01T07:17:19.568Z,100.00
2023-04-01T07:22:31.533Z,100.00
2023-04-01T07:27:35.456Z,100.00
2023-04-01T07:32:44.261Z,100.00
2023-04-01T07:38:00.899Z,100.00
2023-04-01T07:43:34.967Z,100.00
2023-04-01T07:48:41.086Z,100.00
2023-04-01T07:53:51.843Z,100.00
2023-04-01T07:59:04.669Z,100.00
2023-04-01T08:04:22.897Z,100.00
2023-04-01T08:09:34.850Z,100.00
2023-04-01T08:14:49.219Z,100.00
2023-04-01T08:20:05.451Z,100.00
2023-04-01T08:25:15.809Z,100.00
2023-04-01T08:30:23.414Z,100.00
2023-04-01T08:35:32.448Z,100.00
2023-04-01T08:40:52.463Z,100.00
2023-04-01T08:46:27.280Z,100.00
2023-04-01T08:52:09.281Z,100.00
2023-04-01T08:57:20.175Z,100.00
2023-04-01T09:02:49.804Z,100.00
2023-04-01T09:08:04.998Z,100.00
2023-04-01T09:13:28.507Z,100.00
2023-04-01T09:18:59.811Z,100.00
2023-04-01T09:24:33.113Z,100.00
2023-04-01T09:29:53.516Z,100.00
2023-04-01T09:35:06.741Z,100.00
2023-04-01T09:40:20.764Z,100.00
2023-04-01T09:45:34.596Z,100.00
2023-04-01T09:50:51.442Z,100.00
2023-04-01T09:56:32.058Z,100.00
2023-04-01T10:01:53.521Z,100.00
2023-04-01T10:07:42.541Z,100.00
2023-04-01T10:13:02.066Z,100.00
2023-04-01T10:18:36.845Z,100.00
2023-04-01T10:24:09.906Z,100.00
2023-04-01T10:29:37.848Z,100.00
2023-04-01T10:35:09.153Z,100.00
2023-04-01T10:40:37.852Z,100.00
2023-04-01T10:46:16.838Z,100.00
2023-04-01T10:51:30.668Z,100.00
2023-04-01T10:56:49.354Z,100.00
2023-04-01T11:02:35.281Z,100.00
2023-04-01T11:08:13.332Z,100.00
2023-04-01T11:13:55.958Z,100.00
2023-04-01T11:19:21.601Z,100.00
2023-04-01T11:24:43.801Z,100.00
2023-04-01T11:30:13.306Z,100.00
2023-04-01T11:35:35.066Z,100.00
2023-04-01T11:40:43.862Z,100.00
2023-04-01T11:45:53.653Z,100.00
2023-04-01T11:51:10.056Z,100.00
2023-04-01T11:56:26.767Z,100.00
2023-04-01T12:01:38.680Z,100.00
2023-04-01T12:06:47.064Z,100.00
2023-04-01T12:12:02.398Z,100.00
2023-04-01T12:17:17.523Z,100.00
2023-04-01T12:22:44.453Z,100.00
2023-04-01T12:27:59.062Z,99.23
2023-04-01T12:33:25.204Z,99.40
2023-04-01T12:38:37.203Z,99.88
2023-04-01T12:44:15.791Z,99.49
2023-04-01T12:49:49.449Z,99.18
2023-04-01T12:55:20.856Z,99.44
2023-04-01T13:00:45.148Z,98.90
2023-04-01T13:06:21.562Z,98.96
2023-04-01T13:11:38.590Z,97.68
2023-04-01T13:16:43.187Z,98.57
2023-04-01T13:21:57.496Z,98.32
2023-04-01T13:27:08.036Z,96.73
2023-04-01T13:32:43.281Z,97.78
2023-04-01T13:38:03.612Z,96.34
2023-04-01T13:43:14.437Z,97.19
2023-04-01T13:48:43.253Z,97.08
2023-04-01T13:54:11.798Z,97.10
2023-04-01T13:59:45.345Z,97.19
2023-04-01T14:04:58.214Z,96.36
2023-04-01T14:10:22.701Z,95.64
2023-04-01T14:15:33.836Z,96.04
2023-04-01T14:20:42.384Z,96.20
2023-04-01T14:26:05.663Z,95.96
2023-04-01T14:31:32.658Z,96.82
2023-04-01T14:36:52.739Z,95.37
2023-04-01T14:42:22.146Z,95.97
2023-04-01T14:47:44.668Z,95.54
2023-04-01T14:52:54.577Z,95.38
2023-04-01T14:58:09.951Z,95.49
2023-04-01T15:03:21.086Z,95.55
2023-04-01T15:08:28.563Z,93.75
2023-04-01T15:14:03.487Z,93.78
2023-04-01T15:19:17.068Z,93.17
2023-04-01T15:24:25.492Z,93.76
2023-04-01T15:29:45.458Z,93.81
2023-04-01T15:34:56.359Z,94.08
2023-04-01T15:40:08.193Z,93.80
2023-04-01T15:45:19.466Z,91.64
2023-04-01T15:50:51.471Z,92.07
2023-04-01T15:56:01.356Z,92.44
2023-04-01T16:01:17.563Z,92.73
2023-04-01T16:06:35.986Z,92.56
2023-04-01T16:11:51.799Z,92.27
2023-04-01T16:17:07.021Z,91.82
2023-04-01T16:22:15.074Z,91.52
2023-04-01T16:27:25.169Z,91.54
2023-04-01T16:32:44.797Z,91.59
2023-04-01T16:37:52.653Z,91.05
2023-04-01T16:42:58.924Z,91.64
2023-04-01T16:48:13.205Z,90.03
2023-04-01T16:53:20.058Z,90.36
2023-04-01T16:58:28.548Z,88.98
2023-04-01T17:03:38.550Z,88.38
2023-04-01T17:08:56.665Z,88.44
2023-04-01T17:14:13.934Z,86.38
2023-04-01T17:19:35.604Z,86.90
2023-04-01T17:24:53.465Z,87.33
2023-04-01T17:30:12.799Z,86.88
2023-04-01T17:35:21.314Z,85.70
2023-04-01T17:40:39.765Z,86.28
2023-04-01T17:45:51.070Z,87.02
2023-04-01T17:51:13.062Z,86.11
2023-04-01T17:56:27.556Z,87.32
2023-04-01T18:01:43.291Z,87.35
2023-04-01T18:07:18.114Z,86.59
2023-04-01T18:12:31.624Z,84.98
2023-04-01T18:17:44.562Z,84.19
2023-04-01T18:23:00.375Z,83.39
2023-04-01T18:28:21.355Z,82.54
2023-04-01T18:33:31.185Z,83.09
2023-04-01T18:38:41.172Z,83.06
2023-04-01T18:43:57.236Z,83.00
2023-04-01T18:49:10.035Z,83.18
2023-04-01T18:54:23.129Z,83.86
2023-04-01T18:59:30.506Z,84.19
2023-04-01T19:04:38.817Z,84.49
2023-04-01T19:09:47.754Z,85.04
2023-04-01T19:15:01.308Z,85.08
2023-04-01T19:20:16.873Z,84.26
2023-04-01T19:25:32.391Z,84.00
2023-04-01T19:30:49.775Z,84.26
2023-04-01T19:36:02.116Z,84.26
2023-04-01T19:41:18.684Z,84.69
2023-04-01T19:46:30.517Z,83.63
2023-04-01T19:51:39.455Z,84.45
2023-04-01T19:56:49.440Z,84.89
2023-04-01T20:01:57.703Z,84.39
2023-04-01T20:07:07.083Z,84.58
2023-04-01T20:12:19.233Z,85.28
2023-04-01T20:17:25.490Z,85.07
2023-04-01T20:22:38.939Z,85.21
2023-04-01T20:27:48.322Z,85.36
2023-04-01T20:33:14.601Z,85.68
2023-04-01T20:38:57.815Z,85.56
2023-04-01T20:44:10.085Z,84.97
2023-04-01T20:49:27.055Z,85.12
2023-04-01T20:54:44.173Z,85.11
2023-04-01T21:00:04.527Z,84.73
2023-04-01T21:05:33.558Z,84.76
2023-04-01T21:10:45.107Z,84.26
2023-04-01T21:16:05.856Z,84.83
2023-04-01T21:21:23.187Z,84.56
2023-04-01T21:26:48.512Z,84.54
2023-04-01T21:32:06.540Z,85.09
2023-04-01T21:37:33.888Z,84.74
2023-04-01T21:42:46.887Z,83.81
2023-04-01T21:48:24.706Z,82.65
2023-04-01T21:54:00.792Z,83.23
2023-04-01T21:59:28.335Z,84.41
2023-04-01T22:04:45.621Z,83.83
2023-04-01T22:09:59.727Z,84.06
2023-04-01T22:15:10.640Z,84.11
2023-04-01T22:20:24.206Z,84.52
2023-04-01T22:25:32.884Z,84.34
2023-04-01T22:30:42.166Z,84.93
2023-04-01T22:35:53.994Z,84.73
2023-04-01T22:41:05.077Z,85.38
2023-04-01T22:46:33.763Z,84.99
2023-04-01T22:51:45.568Z,85.16
2023-04-01T22:56:52.954Z,85.36
2023-04-01T23:02:00.032Z,85.42
2023-04-01T23:07:14.106Z,85.45
2023-04-01T23:12:18.687Z,85.29
2023-04-01T23:17:41.596Z,85.22
2023-04-01T23:22:56.784Z,85.45
2023-04-01T23:28:19.411Z,85.15
2023-04-01T23:33:25.662Z,85.18
2023-04-01T23:38:29.555Z,84.57
2023-04-01T23:43:34.123Z,84.79
2023-04-01T23:48:40.033Z,84.39
2023-04-01T23:53:47.384Z,84.77
2023-04-01T23:58:53.309Z,84.62
